Time;durP1;ratioP1;P1;durP2;ratioP2;P2;SDS_P1;SDS_P2;PMS_P1;PMS_P2;Temp;Humidity;BMP_temperature;BMP_pressure;BME280_temperature;BME280_humidity;BME280_pressure;Samples;Min_cycle;Max_cycle;Signal;HPM_P1;HPM_P2
2023/03/15 00:02:02;;;;;;;3.42;2.78;;;1.80;99.90;;;;;;5093729;28;20603;-74
2023/03/15 00:04:28;;;;;;;2.20;2.00;;;1.80;99.90;;;;;;5096009;28;20626;-73
2023/03/15 00:06:54;;;;;;;3.88;2.40;;;1.80;99.90;;;;;;5095042;28;20212;-73
2023/03/15 00:09:21;;;;;;;4.82;2.50;;;1.70;99.90;;;;;;5092573;28;20271;-73
2023/03/15 00:11:48;;;;;;;4.10;2.97;;;1.70;99.90;;;;;;5093022;28;20206;-73
2023/03/15 00:14:14;;;;;;;5.57;2.75;;;1.70;99.90;;;;;;5092166;28;20664;-73
2023/03/15 00:16:41;;;;;;;4.00;2.72;;;1.70;99.90;;;;;;5092054;28;20540;-73
2023/03/15 00:19:08;;;;;;;3.25;2.95;;;1.70;99.90;;;;;;5090503;28;20226;-73
2023/03/15 00:21:34;;;;;;;4.57;2.70;;;1.80;99.90;;;;;;5090646;28;20215;-73
2023/03/15 00:24:00;;;;;;;6.45;3.03;;;1.80;99.90;;;;;;5090514;28;20204;-73
2023/03/15 00:26:26;;;;;;;3.45;3.08;;;1.90;99.90;;;;;;5091530;28;20174;-73
2023/03/15 00:28:52;;;;;;;6.87;3.40;;;2.00;99.90;;;;;;5091900;28;20205;-73
2023/03/15 00:31:20;;;;;;;5.00;3.87;;;2.00;99.90;;;;;;5092326;28;20422;-73
2023/03/15 00:33:47;;;;;;;5.03;3.58;;;1.90;99.90;;;;;;5089878;28;20559;-73
2023/03/15 00:36:14;;;;;;;7.20;3.60;;;1.90;99.90;;;;;;5091054;28;20175;-73
2023/03/15 00:38:42;;;;;;;9.30;4.50;;;1.90;99.90;;;;;;5089551;28;20214;-73
2023/03/15 00:41:13;;;;;;;7.13;4.75;;;1.90;99.90;;;;;;5090978;28;20211;-73
2023/03/15 00:43:39;;;;;;;6.65;5.00;;;2.00;99.90;;;;;;5090874;28;20179;-74
2023/03/15 00:46:05;;;;;;;9.00;4.17;;;2.10;99.90;;;;;;5089511;28;20198;-73
2023/03/15 00:48:32;;;;;;;8.90;5.30;;;2.10;99.90;;;;;;5089545;28;20454;-73
2023/03/15 00:51:05;;;;;;;9.30;3.65;;;2.10;99.90;;;;;;5090712;28;20587;-73
2023/03/15 00:53:32;;;;;;;7.97;4.80;;;2.10;99.90;;;;;;5089374;28;20179;-73
2023/03/15 00:56:02;;;;;;;9.45;5.15;;;2.20;99.90;;;;;;5090548;28;20194;-73
2023/03/15 00:58:27;;;;;;;8.48;4.22;;;2.10;99.90;;;;;;5090497;28;20184;-73
2023/03/15 01:00:53;;;;;;;10.60;5.60;;;2.10;99.90;;;;;;5089116;28;20210;-73
2023/03/15 01:03:18;;;;;;;9.83;5.30;;;2.10;99.90;;;;;;5090477;28;20228;-73
2023/03/15 01:05:44;;;;;;;5.07;2.93;;;2.10;99.90;;;;;;5090407;28;20175;-73
2023/03/15 01:08:09;;;;;;;15.97;5.63;;;2.00;99.90;;;;;;5089119;28;20184;-72
2023/03/15 01:10:35;;;;;;;8.40;4.77;;;2.00;99.90;;;;;;5088936;28;20199;-72
2023/03/15 01:13:00;;;;;;;16.50;5.10;;;2.10;99.90;;;;;;5089013;28;20604;-72
2023/03/15 01:15:26;;;;;;;6.67;4.03;;;2.10;99.90;;;;;;5088690;28;20186;-72
2023/03/15 01:17:52;;;;;;;10.87;4.90;;;2.10;99.90;;;;;;5090135;28;20218;-73
2023/03/15 01:20:17;;;;;;;7.17;4.73;;;2.10;99.90;;;;;;5089886;28;20480;-73
2023/03/15 01:22:43;;;;;;;15.67;4.50;;;2.20;99.90;;;;;;5090087;28;20177;-73
2023/03/15 01:25:09;;;;;;;9.00;4.47;;;2.10;99.90;;;;;;5088398;28;20277;-73
2023/03/15 01:27:35;;;;;;;7.17;3.77;;;2.10;99.90;;;;;;5088726;28;20208;-73
2023/03/15 01:30:00;;;;;;;8.20;5.53;;;2.10;99.90;;;;;;5088312;28;20450;-73
2023/03/15 01:32:26;;;;;;;10.10;5.20;;;2.10;99.90;;;;;;5089876;28;20187;-73
2023/03/15 01:34:52;;;;;;;9.47;5.40;;;2.20;99.90;;;;;;5088674;28;20229;-73
2023/03/15 01:37:17;;;;;;;10.60;5.03;;;2.20;99.90;;;;;;5088364;28;20682;-73
2023/03/15 01:39:43;;;;;;;6.90;4.17;;;2.30;99.90;;;;;;5088179;28;20206;-73
2023/03/15 01:42:09;;;;;;;13.60;4.20;;;2.30;99.90;;;;;;5089724;28;20647;-73
2023/03/15 01:45:00;;;;;;;9.88;3.90;;;2.40;99.90;;;;;;5089646;28;20238;-73
2023/03/15 01:47:27;;;;;;;4.97;3.65;;;2.40;99.90;;;;;;5088121;28;20187;-73
2023/03/15 01:50:07;;;;;;;10.43;3.70;;;2.40;99.90;;;;;;5087919;28;20247;-73
2023/03/15 01:52:36;;;;;;;3.33;2.80;;;2.40;99.90;;;;;;5089602;28;20565;-73
2023/03/15 01:55:15;;;;;;;8.20;3.30;;;2.40;99.90;;;;;;5089397;28;20190;-73
2023/03/15 01:57:48;;;;;;;9.68;3.97;;;2.40;99.90;;;;;;5089439;28;20193;-74
2023/03/15 02:00:16;;;;;;;6.97;3.70;;;2.40;99.90;;;;;;5088225;28;20217;-73
2023/03/15 02:02:56;;;;;;;7.32;3.42;;;2.40;99.90;;;;;;5089252;28;20289;-73
2023/03/15 02:05:28;;;;;;;9.15;3.63;;;2.30;99.90;;;;;;5088743;28;20297;-73
2023/03/15 02:07:54;;;;;;;12.90;3.47;;;2.30;99.90;;;;;;5087860;28;20196;-74
2023/03/15 02:10:29;;;;;;;7.80;3.45;;;2.20;99.90;;;;;;5089281;28;20756;-73
2023/03/15 02:12:56;;;;;;;8.40;3.28;;;2.20;99.90;;;;;;5089279;28;20188;-73
2023/03/15 02:15:21;;;;;;;9.73;4.85;;;2.10;99.90;;;;;;5087706;28;20177;-73
2023/03/15 02:17:48;;;;;;;8.20;3.20;;;2.10;99.90;;;;;;5089250;28;20184;-72
2023/03/15 02:20:33;;;;;;;7.97;3.20;;;2.20;99.90;;;;;;5088929;28;20212;-72
2023/03/15 02:23:11;;;;;;;4.93;2.55;;;2.20;99.90;;;;;;5087425;28;20204;-73
2023/03/15 02:26:03;;;;;;;10.88;3.63;;;2.10;99.90;;;;;;5092707;28;20239;-73
2023/03/15 02:28:29;;;;;;;7.05;3.55;;;2.20;99.90;;;;;;5078322;28;20184;-73
2023/03/15 02:30:56;;;;;;;15.65;3.50;;;2.20;99.90;;;;;;5092987;28;20187;-73
2023/03/15 02:33:42;;;;;;;5.75;3.10;;;2.20;99.90;;;;;;5093102;28;20183;-72
2023/03/15 02:36:21;;;;;;;7.53;2.60;;;2.10;99.90;;;;;;5092660;28;20176;-72
2023/03/15 02:38:47;;;;;;;8.50;2.25;;;2.10;99.90;;;;;;5090726;28;20229;-72
2023/03/15 02:41:19;;;;;;;6.80;2.65;;;2.10;99.90;;;;;;5092329;28;20310;-72
2023/03/15 02:43:48;;;;;;;4.75;2.17;;;2.10;99.90;;;;;;5092658;28;20658;-73
2023/03/15 02:46:15;;;;;;;8.15;2.00;;;2.10;99.90;;;;;;5092436;28;20257;-73
2023/03/15 02:48:41;;;;;;;6.85;2.28;;;2.10;99.90;;;;;;5092369;28;20194;-73
2023/03/15 02:51:19;;;;;;;7.57;2.90;;;2.00;99.90;;;;;;5074577;28;20188;-72
2023/03/15 02:53:45;;;;;;;7.28;2.28;;;2.00;99.90;;;;;;5075833;28;20206;-73
2023/03/15 02:56:10;;;;;;;9.80;2.10;;;2.00;99.90;;;;;;5091556;28;20179;-73
2023/03/15 02:58:36;;;;;;;12.60;1.93;;;2.00;99.90;;;;;;5091283;28;20192;-73
2023/03/15 03:01:01;;;;;;;5.67;2.10;;;2.00;99.90;;;;;;5091359;28;20224;-73
2023/03/15 03:03:27;;;;;;;8.07;2.13;;;2.00;99.90;;;;;;5091397;28;20635;-73
2023/03/15 03:05:52;;;;;;;4.00;1.40;;;2.00;99.90;;;;;;5091094;28;20179;-73
2023/03/15 03:08:18;;;;;;;5.27;2.17;;;1.90;99.90;;;;;;5092690;28;20225;-73
2023/03/15 03:10:43;;;;;;;9.47;1.97;;;1.90;99.90;;;;;;5092337;28;20229;-73
2023/03/15 03:13:09;;;;;;;9.03;2.00;;;1.80;99.90;;;;;;5091103;28;20186;-73
2023/03/15 03:15:35;;;;;;;3.90;1.70;;;1.80;99.90;;;;;;5092417;28;20738;-73
2023/03/15 03:18:00;;;;;;;3.67;2.43;;;1.80;99.90;;;;;;5091036;28;20255;-72
2023/03/15 03:20:26;;;;;;;4.90;1.70;;;1.80;99.90;;;;;;5091049;28;20695;-73
2023/03/15 03:22:54;;;;;;;5.03;1.60;;;1.80;99.90;;;;;;5090876;28;20186;-73
2023/03/15 03:25:20;;;;;;;5.28;1.48;;;1.80;99.90;;;;;;5090772;28;20174;-73
2023/03/15 03:27:46;;;;;;;8.65;1.73;;;1.80;99.90;;;;;;5092173;28;20187;-72
2023/03/15 03:30:13;;;;;;;6.03;1.30;;;1.70;99.90;;;;;;5092000;28;20238;-72
2023/03/15 03:32:40;;;;;;;9.60;1.60;;;1.80;99.90;;;;;;5092168;28;20710;-72
2023/03/15 03:35:06;;;;;;;3.67;1.40;;;1.80;99.90;;;;;;5090123;28;20191;-72
2023/03/15 03:37:32;;;;;;;7.15;1.42;;;1.80;99.90;;;;;;5091594;28;20361;-73
2023/03/15 03:39:57;;;;;;;5.67;1.70;;;1.80;99.90;;;;;;5091885;28;20214;-72
2023/03/15 03:42:23;;;;;;;6.53;1.43;;;1.80;99.90;;;;;;5091918;28;20214;-73
2023/03/15 03:44:49;;;;;;;6.20;1.67;;;1.70;99.90;;;;;;5092098;28;20181;-73
2023/03/15 03:47:15;;;;;;;4.10;1.30;;;1.60;99.90;;;;;;5091773;28;20179;-72
2023/03/15 03:49:40;;;;;;;6.70;1.53;;;1.70;99.90;;;;;;5091736;28;20757;-72
2023/03/15 03:52:06;;;;;;;4.60;1.73;;;1.70;99.90;;;;;;5091705;28;20536;-72
2023/03/15 03:54:32;;;;;;;3.00;1.33;;;1.70;99.90;;;;;;5091755;28;20175;-72
2023/03/15 03:56:57;;;;;;;3.03;0.90;;;1.70;99.90;;;;;;5091616;28;20222;-72
2023/03/15 03:59:23;;;;;;;5.00;1.33;;;1.60;99.90;;;;;;5090073;28;20195;-72
2023/03/15 04:01:50;;;;;;;3.63;1.60;;;1.60;99.90;;;;;;5091371;28;20289;-72
2023/03/15 04:04:15;;;;;;;5.05;2.15;;;1.60;99.90;;;;;;5090259;28;20553;-72
2023/03/15 04:06:50;;;;;;;6.10;2.07;;;1.60;99.90;;;;;;5090107;28;20181;-72
2023/03/15 04:09:16;;;;;;;10.35;1.80;;;1.50;99.90;;;;;;5089902;28;20444;-72
2023/03/15 04:11:42;;;;;;;2.55;1.40;;;1.40;99.90;;;;;;5091398;28;20175;-72
2023/03/15 04:14:09;;;;;;;10.77;1.35;;;1.40;99.90;;;;;;5091390;28;20183;-72
2023/03/15 04:16:35;;;;;;;5.63;1.90;;;1.40;99.90;;;;;;5089740;28;20677;-72
2023/03/15 04:19:02;;;;;;;6.55;2.40;;;1.40;99.90;;;;;;5091084;28;20207;-72
2023/03/15 04:21:30;;;;;;;6.47;1.45;;;1.40;99.90;;;;;;5091218;28;20558;-72
2023/03/15 04:24:00;;;;;;;5.78;1.30;;;1.40;99.90;;;;;;5091152;28;20254;-72
2023/03/15 04:26:27;;;;;;;9.20;1.63;;;1.40;99.90;;;;;;5091110;28;20175;-72
2023/03/15 04:28:54;;;;;;;9.32;1.98;;;1.40;99.90;;;;;;5091057;28;20291;-72
2023/03/15 04:31:20;;;;;;;5.53;1.70;;;1.40;99.90;;;;;;5089694;28;20198;-72
2023/03/15 04:33:46;;;;;;;5.03;1.25;;;1.40;99.90;;;;;;5090911;28;20677;-72
2023/03/15 04:36:17;;;;;;;4.17;1.70;;;1.40;99.90;;;;;;5090997;28;20190;-72
2023/03/15 04:38:46;;;;;;;3.75;1.80;;;1.40;99.90;;;;;;5090643;28;20723;-72
2023/03/15 04:41:13;;;;;;;6.95;2.15;;;1.40;99.90;;;;;;5089531;28;20219;-72
2023/03/15 04:43:39;;;;;;;7.50;2.40;;;1.40;99.90;;;;;;5090836;28;20208;-73
2023/03/15 04:46:04;;;;;;;9.30;2.13;;;1.40;99.90;;;;;;5090677;28;20259;-72
2023/03/15 04:48:30;;;;;;;5.20;1.90;;;1.40;99.90;;;;;;5090297;28;20167;-72
2023/03/15 04:50:56;;;;;;;14.90;1.57;;;1.50;99.90;;;;;;5090658;28;20594;-71
2023/03/15 04:53:21;;;;;;;8.00;1.40;;;1.50;99.90;;;;;;5089066;28;20719;-72
2023/03/15 04:55:47;;;;;;;5.33;1.93;;;1.40;99.90;;;;;;5090705;28;20228;-73
2023/03/15 04:58:13;;;;;;;4.70;1.87;;;1.40;99.90;;;;;;5090786;28;20266;-73
2023/03/15 05:00:38;;;;;;;18.77;2.00;;;1.40;99.90;;;;;;5091032;28;20236;-72
2023/03/15 05:03:04;;;;;;;12.70;2.90;;;1.40;99.90;;;;;;5091044;28;20183;-73
2023/03/15 05:05:32;;;;;;;8.97;2.23;;;1.40;99.90;;;;;;5090191;28;20187;-72
2023/03/15 05:07:58;;;;;;;7.35;2.30;;;1.40;99.90;;;;;;5091420;28;20235;-72
2023/03/15 05:10:24;;;;;;;3.07;1.83;;;1.30;99.90;;;;;;5072901;28;20766;-72
2023/03/15 05:12:50;;;;;;;3.03;1.90;;;1.30;99.90;;;;;;5091204;28;20563;-72
2023/03/15 05:15:16;;;;;;;6.15;2.00;;;1.30;99.90;;;;;;5091178;28;20448;-71
2023/03/15 05:17:45;;;;;;;6.30;2.35;;;1.20;99.90;;;;;;5089512;28;20592;-72
2023/03/15 05:20:13;;;;;;;4.45;2.20;;;1.30;99.90;;;;;;5090758;28;20202;-72
2023/03/15 05:22:39;;;;;;;4.93;2.30;;;1.20;99.90;;;;;;5090731;28;20262;-72
2023/03/15 05:25:06;;;;;;;6.75;2.25;;;1.20;99.90;;;;;;5090575;28;20175;-71
2023/03/15 05:27:33;;;;;;;2.38;1.67;;;1.20;99.90;;;;;;5090477;28;20706;-72
2023/03/15 05:30:02;;;;;;;5.30;1.77;;;1.10;99.90;;;;;;5090487;28;20698;-73
2023/03/15 05:32:33;;;;;;;2.85;2.08;;;1.20;99.90;;;;;;5088739;28;20184;-72
2023/03/15 05:35:03;;;;;;;5.18;1.83;;;1.20;99.90;;;;;;5090126;28;20174;-72
2023/03/15 05:37:31;;;;;;;6.47;2.20;;;1.20;99.90;;;;;;5088641;28;20239;-72
2023/03/15 05:39:56;;;;;;;6.43;2.40;;;1.20;99.90;;;;;;5088407;28;20216;-72
2023/03/15 05:42:25;;;;;;;4.60;1.90;;;1.20;99.90;;;;;;5088599;28;20183;-72
2023/03/15 05:44:52;;;;;;;5.15;1.92;;;1.10;99.90;;;;;;5089838;28;20191;-71
2023/03/15 05:47:17;;;;;;;14.98;2.25;;;1.20;99.90;;;;;;5089834;28;20205;-72
2023/03/15 05:49:43;;;;;;;7.30;2.13;;;1.10;99.90;;;;;;5089602;28;20570;-73
2023/03/15 05:52:09;;;;;;;18.13;3.10;;;1.20;99.90;;;;;;5087605;28;20183;-72
2023/03/15 05:54:34;;;;;;;2.40;1.70;;;1.20;99.90;;;;;;5088142;28;20804;-72
2023/03/15 05:57:00;;;;;;;5.60;2.27;;;1.20;99.90;;;;;;5087875;28;20252;-72
2023/03/15 05:59:26;;;;;;;9.13;2.50;;;1.20;99.90;;;;;;5087053;28;20215;-73
2023/03/15 06:01:51;;;;;;;5.83;2.43;;;1.20;99.90;;;;;;5087628;28;20298;-73
2023/03/15 06:04:17;;;;;;;6.47;2.30;;;1.20;99.90;;;;;;5087988;28;20943;-73
2023/03/15 06:06:42;;;;;;;5.13;2.03;;;1.20;99.90;;;;;;5086475;28;20225;-72
2023/03/15 06:09:08;;;;;;;4.80;2.50;;;1.30;99.90;;;;;;5086767;28;20206;-72
2023/03/15 06:11:34;;;;;;;9.32;3.08;;;1.20;99.90;;;;;;5086577;28;20189;-72
2023/03/15 06:14:00;;;;;;;7.73;2.30;;;1.20;99.90;;;;;;5089648;28;20272;-73
2023/03/15 06:16:25;;;;;;;5.27;2.77;;;1.20;99.90;;;;;;5088778;28;20187;-72
2023/03/15 06:18:51;;;;;;;4.07;2.40;;;1.30;99.90;;;;;;5088567;28;20461;-72
2023/03/15 06:21:17;;;;;;;14.63;2.20;;;1.30;99.90;;;;;;5070016;28;20210;-73
2023/03/15 06:23:42;;;;;;;8.97;3.60;;;1.30;99.90;;;;;;5087508;28;20187;-72
2023/03/15 06:26:08;;;;;;;4.07;2.00;;;1.80;99.90;;;;;;5087493;28;20975;-72
2023/03/15 06:28:34;;;;;;;8.43;2.73;;;2.30;99.90;;;;;;5087255;28;20186;-73
2023/03/15 06:31:10;;;;;;;3.67;2.10;;;3.00;99.90;;;;;;5087650;28;20262;-72
2023/03/15 06:33:36;;;;;;;5.53;2.40;;;3.70;99.90;;;;;;5086578;28;20430;-71
2023/03/15 06:36:01;;;;;;;8.03;2.47;;;4.00;99.90;;;;;;5086264;28;20203;-73
2023/03/15 06:38:27;;;;;;;4.83;1.97;;;4.40;99.90;;;;;;5086519;28;20200;-72
2023/03/15 06:40:54;;;;;;;7.10;2.47;;;4.70;99.90;;;;;;5088050;28;20228;-72
2023/03/15 06:43:20;;;;;;;10.00;2.23;;;5.00;99.90;;;;;;5086489;28;20174;-72
2023/03/15 06:45:46;;;;;;;4.40;2.10;;;5.30;99.90;;;;;;5087949;28;20930;-72
2023/03/15 06:48:13;;;;;;;4.80;2.27;;;5.20;99.00;;;;;;5086428;28;20592;-71
2023/03/15 06:50:39;;;;;;;10.73;2.17;;;5.50;98.40;;;;;;5087625;28;20944;-71
2023/03/15 06:53:04;;;;;;;6.80;2.30;;;5.60;96.80;;;;;;5087957;28;20429;-72
2023/03/15 06:55:30;;;;;;;9.50;2.27;;;5.30;96.70;;;;;;5087336;28;20515;-71
2023/03/15 06:57:56;;;;;;;5.50;2.10;;;5.50;98.80;;;;;;5087000;28;20213;-73
2023/03/15 07:00:21;;;;;;;15.77;2.60;;;5.70;98.90;;;;;;5085477;28;20974;-72
2023/03/15 07:02:47;;;;;;;8.63;1.77;;;5.60;97.70;;;;;;5085505;28;20258;-72
2023/03/15 07:05:13;;;;;;;2.40;2.00;;;5.10;98.80;;;;;;5087175;28;20178;-72
2023/03/15 07:07:39;;;;;;;7.67;2.13;;;4.90;98.40;;;;;;5086044;28;20455;-72
2023/03/15 07:10:05;;;;;;;4.03;1.50;;;4.70;98.60;;;;;;5087266;28;20342;-72
2023/03/15 07:12:31;;;;;;;6.20;1.70;;;4.90;99.70;;;;;;5091874;28;20505;-72
2023/03/15 07:14:57;;;;;;;10.67;2.37;;;4.90;99.50;;;;;;5091268;28;20266;-72
2023/03/15 07:17:22;;;;;;;6.43;1.70;;;4.80;98.90;;;;;;5091320;28;20716;-72
2023/03/15 07:19:48;;;;;;;8.17;1.60;;;4.50;99.90;;;;;;5089531;28;20289;-72
2023/03/15 07:22:13;;;;;;;7.87;1.97;;;4.20;99.60;;;;;;5089465;28;20732;-71
2023/03/15 07:24:39;;;;;;;5.83;2.10;;;4.00;99.90;;;;;;5072603;28;20728;-73
2023/03/15 07:27:05;;;;;;;1.93;1.33;;;3.90;99.90;;;;;;5089726;28;20213;-73
2023/03/15 07:29:30;;;;;;;6.10;2.63;;;3.60;99.90;;;;;;5091100;28;20201;-73
2023/03/15 07:31:56;;;;;;;4.93;1.37;;;3.70;99.90;;;;;;5072603;28;20665;-73
2023/03/15 07:34:22;;;;;;;7.73;1.30;;;4.10;99.90;;;;;;5089412;28;20188;-73
2023/03/15 07:36:47;;;;;;;7.20;2.00;;;4.10;99.90;;;;;;5089218;28;20197;-73
2023/03/15 07:39:13;;;;;;;6.67;1.80;;;4.40;99.90;;;;;;5089247;28;20208;-73
2023/03/15 07:41:38;;;;;;;5.57;2.10;;;4.50;99.90;;;;;;5090835;28;20213;-73
2023/03/15 07:44:05;;;;;;;6.40;1.87;;;4.30;99.40;;;;;;5090696;28;20185;-73
2023/03/15 07:46:30;;;;;;;2.33;1.63;;;4.50;98.60;;;;;;5090489;28;20200;-73
2023/03/15 07:48:56;;;;;;;6.43;2.30;;;4.00;99.90;;;;;;5088976;28;20213;-72
2023/03/15 07:51:21;;;;;;;8.80;1.60;;;3.90;99.90;;;;;;5090455;28;20188;-73
2023/03/15 07:53:47;;;;;;;5.77;2.03;;;4.10;99.90;;;;;;5089072;28;20183;-73
2023/03/15 07:56:13;;;;;;;5.90;1.73;;;3.90;99.40;;;;;;5088881;28;20221;-74
2023/03/15 07:58:38;;;;;;;7.53;1.30;;;4.00;99.50;;;;;;5090084;28;20179;-74
2023/03/15 08:01:04;;;;;;;10.10;2.23;;;4.10;99.50;;;;;;5088692;28;20227;-73
2023/03/15 08:03:30;;;;;;;7.93;2.30;;;4.30;99.10;;;;;;5088916;28;20214;-73
2023/03/15 08:05:56;;;;;;;4.03;1.70;;;4.60;99.00;;;;;;5090003;28;20353;-73
2023/03/15 08:08:21;;;;;;;8.00;2.30;;;4.90;99.20;;;;;;5088216;28;20419;-73
2023/03/15 08:10:47;;;;;;;3.27;1.40;;;5.50;97.70;;;;;;5089841;28;20813;-73
2023/03/15 08:13:13;;;;;;;5.10;1.60;;;5.70;97.20;;;;;;5088558;28;20841;-73
2023/03/15 08:15:39;;;;;;;6.40;1.40;;;5.90;96.60;;;;;;5090049;28;20188;-73
2023/03/15 08:18:05;;;;;;;7.57;1.50;;;6.30;97.20;;;;;;5089829;28;20419;-73
2023/03/15 08:20:32;;;;;;;9.87;1.60;;;6.30;92.00;;;;;;5088460;28;20233;-73
2023/03/15 08:22:58;;;;;;;4.47;1.43;;;6.60;94.10;;;;;;5088916;28;20418;-73
2023/03/15 08:25:25;;;;;;;6.67;1.83;;;6.40;93.10;;;;;;5089747;28;20419;-73
2023/03/15 08:27:51;;;;;;;5.30;1.70;;;7.00;94.80;;;;;;5088835;28;20847;-73
2023/03/15 08:30:18;;;;;;;5.10;1.80;;;7.20;92.20;;;;;;5090251;28;20439;-74
2023/03/15 08:32:45;;;;;;;4.40;2.80;;;7.60;92.70;;;;;;5089828;28;20420;-73
2023/03/15 08:35:12;;;;;;;5.90;2.13;;;7.70;90.50;;;;;;5088220;28;20424;-73
2023/03/15 08:37:38;;;;;;;1.57;1.10;;;7.60;88.20;;;;;;5089465;28;20433;-74
2023/03/15 08:40:08;;;;;;;2.30;0.83;;;7.60;87.40;;;;;;5088184;28;20432;-73
2023/03/15 08:42:35;;;;;;;5.03;1.10;;;7.20;87.00;;;;;;5089605;28;20413;-73
2023/03/15 08:45:02;;;;;;;11.67;1.07;;;6.50;85.40;;;;;;5088144;28;20438;-73
2023/03/15 08:47:27;;;;;;;2.17;1.13;;;7.20;89.70;;;;;;5089492;28;20834;-73
2023/03/15 08:49:53;;;;;;;4.23;0.93;;;7.30;85.70;;;;;;5087958;28;20448;-73
2023/03/15 08:52:20;;;;;;;5.07;1.37;;;7.40;84.50;;;;;;5088201;28;20654;-73
2023/03/15 08:54:46;;;;;;;3.93;1.60;;;7.70;85.00;;;;;;5087784;28;20277;-73
2023/03/15 08:57:12;;;;;;;3.33;1.00;;;8.20;87.50;;;;;;5087921;28;20423;-73
2023/03/15 08:59:38;;;;;;;5.70;1.27;;;8.20;80.80;;;;;;5089318;28;21146;-73
2023/03/15 09:02:04;;;;;;;3.87;1.47;;;8.20;81.20;;;;;;5087760;28;20911;-74
2023/03/15 09:04:31;;;;;;;8.73;4.73;;;8.70;82.00;;;;;;5089464;28;20413;-73
2023/03/15 09:06:56;;;;;;;5.30;3.20;;;8.40;76.70;;;;;;5087305;28;20443;-73
2023/03/15 09:09:22;;;;;;;4.53;1.60;;;9.30;79.50;;;;;;5070451;28;20448;-73
2023/03/15 09:11:48;;;;;;;2.97;1.47;;;9.30;76.90;;;;;;5087393;28;20198;-73
2023/03/15 09:14:14;;;;;;;3.80;1.70;;;9.60;76.60;;;;;;5088612;28;20190;-73
2023/03/15 09:16:40;;;;;;;3.73;1.17;;;9.60;72.50;;;;;;5087039;28;20816;-73
2023/03/15 09:19:05;;;;;;;2.70;1.43;;;8.60;67.90;;;;;;5087986;28;20205;-73
2023/03/15 09:21:31;;;;;;;1.93;1.20;;;8.10;72.20;;;;;;5086424;28;20686;-73
2023/03/15 09:23:57;;;;;;;4.63;1.20;;;7.50;72.10;;;;;;5088024;28;20183;-73
2023/03/15 09:26:22;;;;;;;4.30;2.50;;;7.10;71.80;;;;;;5086834;28;20178;-73
2023/03/15 09:28:48;;;;;;;5.97;2.10;;;6.80;73.00;;;;;;5087723;28;20358;-73
2023/03/15 09:31:14;;;;;;;3.37;1.20;;;7.50;78.10;;;;;;5086095;28;20225;-73
2023/03/15 09:33:39;;;;;;;1.30;0.90;;;7.60;75.40;;;;;;5086814;28;20192;-73
2023/03/15 09:36:06;;;;;;;3.40;0.73;;;8.10;77.80;;;;;;5069355;28;20190;-73
2023/03/15 09:38:32;;;;;;;3.50;3.20;;;8.20;73.10;;;;;;5086189;28;20816;-73
2023/03/15 09:40:58;;;;;;;2.10;0.83;;;8.30;74.80;;;;;;5087602;28;21116;-73
2023/03/15 09:43:46;;;;;;;6.53;2.80;;;8.50;75.50;;;;;;5085838;28;20456;-73
2023/03/15 09:46:26;;;;;;;3.03;0.80;;;8.90;74.30;;;;;;5087490;28;20776;-73
2023/03/15 09:49:02;;;;;;;1.40;0.90;;;9.90;73.00;;;;;;5088065;28;20424;-73
2023/03/15 09:51:41;;;;;;;1.93;1.20;;;10.00;68.80;;;;;;5088022;28;20958;-73
2023/03/15 09:54:14;;;;;;;4.43;0.70;;;10.20;67.20;;;;;;5087856;28;20412;-74
2023/03/15 09:56:48;;;;;;;2.13;0.87;;;9.50;66.30;;;;;;5087753;28;20428;-73
2023/03/15 09:59:21;;;;;;;5.10;1.03;;;9.10;70.20;;;;;;5087332;28;20471;-74
2023/03/15 10:01:48;;;;;;;2.70;0.70;;;9.10;67.50;;;;;;5087379;28;20507;-73
2023/03/15 10:04:33;;;;;;;2.73;1.07;;;9.20;71.50;;;;;;5087329;28;20499;-73
2023/03/15 10:07:02;;;;;;;1.30;0.93;;;9.30;69.90;;;;;;5085780;28;20424;-74
2023/03/15 10:09:33;;;;;;;2.23;1.07;;;9.30;70.80;;;;;;5085781;28;20527;-74
2023/03/15 10:12:10;;;;;;;4.97;1.20;;;9.00;69.00;;;;;;5087363;28;20411;-73
2023/03/15 10:14:59;;;;;;;3.23;0.83;;;9.00;71.40;;;;;;5089974;28;21040;-73
2023/03/15 10:17:47;;;;;;;1.40;0.90;;;8.80;69.40;;;;;;5045948;28;21000;-73
2023/03/15 10:20:34;;;;;;;2.30;1.00;;;8.60;71.30;;;;;;5087623;28;21034;-73
2023/03/15 10:23:25;;;;;;;0.80;0.70;;;8.50;70.50;;;;;;5086569;28;20427;-73
2023/03/15 10:25:52;;;;;;;2.63;0.87;;;8.30;71.30;;;;;;5088205;28;20420;-72
2023/03/15 10:28:28;;;;;;;1.00;0.70;;;8.20;74.50;;;;;;5088411;28;20424;-73
2023/03/15 10:30:58;;;;;;;1.67;0.90;;;8.20;74.00;;;;;;5087974;28;21035;-73
2023/03/15 10:33:31;;;;;;;4.80;0.90;;;8.10;74.50;;;;;;5087717;28;20489;-73
2023/03/15 10:35:57;;;;;;;2.23;0.87;;;7.80;73.20;;;;;;5087693;28;20424;-72
2023/03/15 10:38:24;;;;;;;1.77;0.97;;;7.60;73.70;;;;;;5088526;28;20468;-73
2023/03/15 10:40:55;;;;;;;2.27;0.70;;;7.60;74.70;;;;;;5089800;28;20601;-73
2023/03/15 10:43:34;;;;;;;2.67;0.90;;;7.40;75.30;;;;;;5091066;28;20519;-73
2023/03/15 10:46:06;;;;;;;4.50;0.97;;;7.40;74.30;;;;;;5092554;28;20519;-73
2023/03/15 10:48:34;;;;;;;1.97;0.90;;;7.30;75.20;;;;;;5093622;28;20412;-72
2023/03/15 10:51:18;;;;;;;1.43;1.00;;;7.50;75.60;;;;;;5094195;28;20420;-73
2023/03/15 10:53:58;;;;;;;2.53;0.93;;;7.30;73.90;;;;;;5093364;28;20437;-72
2023/03/15 10:56:30;;;;;;;2.90;1.30;;;7.30;76.40;;;;;;5093076;28;20412;-73
2023/03/15 10:58:57;;;;;;;1.93;0.87;;;7.40;79.90;;;;;;5090897;28;20432;-72
2023/03/15 11:01:33;;;;;;;1.40;0.90;;;7.50;80.40;;;;;;5092789;28;21061;-72
2023/03/15 11:04:07;;;;;;;3.33;1.10;;;7.50;79.60;;;;;;5092950;28;20427;-72
2023/03/15 11:06:41;;;;;;;2.37;1.10;;;7.60;78.70;;;;;;5090291;28;20891;-72
2023/03/15 11:09:10;;;;;;;4.40;1.20;;;7.70;77.80;;;;;;5092725;28;20432;-73
2023/03/15 11:11:59;;;;;;;5.83;1.00;;;7.90;77.80;;;;;;5093209;28;20417;-73
2023/03/15 11:14:32;;;;;;;2.13;1.03;;;7.60;76.20;;;;;;5093986;28;20420;-73
2023/03/15 11:16:59;;;;;;;1.47;0.90;;;7.70;77.40;;;;;;5092881;28;20416;-73
2023/03/15 11:19:28;;;;;;;1.30;0.90;;;7.90;78.00;;;;;;5092033;28;21049;-72
2023/03/15 11:21:56;;;;;;;4.80;1.10;;;7.90;78.50;;;;;;5090971;28;20912;-73
2023/03/15 11:24:32;;;;;;;0.97;0.83;;;8.20;77.10;;;;;;5092613;28;20433;-73
2023/03/15 11:27:08;;;;;;;4.77;1.07;;;8.30;72.60;;;;;;5092713;28;20412;-74
2023/03/15 11:29:36;;;;;;;1.93;0.90;;;8.40;74.10;;;;;;5092502;28;20477;-73
2023/03/15 11:32:18;;;;;;;9.00;1.13;;;8.10;71.00;;;;;;5091220;28;20959;-74
2023/03/15 11:35:06;;;;;;;1.43;0.63;;;8.10;72.90;;;;;;5073860;28;20428;-74
2023/03/15 11:37:47;;;;;;;2.00;1.40;;;8.10;70.80;;;;;;5091870;28;20435;-74
2023/03/15 11:40:28;;;;;;;1.37;1.00;;;8.30;74.60;;;;;;5091060;28;20467;-73
2023/03/15 11:43:05;;;;;;;2.70;1.13;;;8.40;77.60;;;;;;5090818;28;20775;-72
2023/03/15 11:45:41;;;;;;;2.00;0.60;;;8.50;71.60;;;;;;5090814;28;20780;-73
2023/03/15 11:48:18;;;;;;;1.67;0.70;;;8.50;69.20;;;;;;5090689;28;20979;-72
2023/03/15 11:50:44;;;;;;;3.17;0.93;;;8.40;65.80;;;;;;5090635;28;20554;-72
2023/03/15 11:53:13;;;;;;;4.47;1.00;;;7.90;63.30;;;;;;5090619;28;20483;-72
2023/03/15 11:55:38;;;;;;;6.43;0.97;;;7.80;64.60;;;;;;5090778;28;20182;-72
2023/03/15 11:58:27;;;;;;;3.80;0.70;;;8.00;71.30;;;;;;5089362;28;20801;-72
2023/03/15 12:01:01;;;;;;;4.13;0.87;;;8.00;67.40;;;;;;5077475;28;20226;-72
2023/03/15 12:03:41;;;;;;;1.53;0.90;;;7.90;67.50;;;;;;5091094;28;20447;-72
2023/03/15 12:06:12;;;;;;;1.73;0.80;;;7.80;67.00;;;;;;5090582;28;20427;-73
2023/03/15 12:08:54;;;;;;;1.70;0.80;;;7.80;68.00;;;;;;5090026;28;20423;-73
2023/03/15 12:11:23;;;;;;;1.60;0.70;;;7.90;69.00;;;;;;5088024;28;20458;-72
2023/03/15 12:13:57;;;;;;;9.23;1.33;;;7.80;68.10;;;;;;5089611;28;20429;-73
2023/03/15 12:16:49;;;;;;;4.03;0.90;;;7.90;69.70;;;;;;5089274;28;20412;-73
2023/03/15 12:19:19;;;;;;;2.30;0.60;;;8.10;72.50;;;;;;5085353;28;20449;-73
2023/03/15 12:21:54;;;;;;;1.87;0.60;;;8.20;71.00;;;;;;5088975;28;20464;-72
2023/03/15 12:24:25;;;;;;;3.23;0.70;;;8.20;69.30;;;;;;5089295;28;20900;-72
2023/03/15 12:27:01;;;;;;;3.00;0.60;;;8.20;68.40;;;;;;5089144;28;20440;-72
2023/03/15 12:29:29;;;;;;;2.50;0.60;;;8.20;68.60;;;;;;5088910;28;20958;-72
2023/03/15 12:32:00;;;;;;;2.23;0.90;;;8.30;71.10;;;;;;5088998;28;20500;-73
2023/03/15 12:34:26;;;;;;;4.30;1.10;;;8.10;71.00;;;;;;5088642;28;20495;-72
2023/03/15 12:36:56;;;;;;;2.43;0.90;;;8.10;71.70;;;;;;5088907;28;20936;-73
2023/03/15 12:39:36;;;;;;;2.80;0.70;;;8.10;70.70;;;;;;5088638;28;20202;-73
2023/03/15 12:42:03;;;;;;;5.20;0.77;;;8.20;72.10;;;;;;5088933;28;20468;-73
2023/03/15 12:44:32;;;;;;;4.67;0.83;;;8.20;71.80;;;;;;5087330;28;20416;-73
2023/03/15 12:47:02;;;;;;;3.00;0.63;;;8.40;73.60;;;;;;5088622;28;20495;-72
2023/03/15 12:49:31;;;;;;;3.77;0.60;;;8.40;70.60;;;;;;5088567;28;20456;-73
2023/03/15 12:52:05;;;;;;;6.40;1.07;;;8.40;71.10;;;;;;5088250;28;20970;-73
2023/03/15 12:54:45;;;;;;;2.33;0.80;;;8.60;71.90;;;;;;5088311;28;20420;-73
2023/03/15 12:57:20;;;;;;;5.13;0.70;;;8.50;73.30;;;;;;5088720;28;20423;-73
2023/03/15 12:59:58;;;;;;;3.80;1.20;;;8.50;71.80;;;;;;5086608;28;20544;-73
2023/03/15 13:02:42;;;;;;;3.20;0.70;;;8.40;71.50;;;;;;5087989;28;20793;-72
2023/03/15 13:05:08;;;;;;;1.07;0.60;;;8.50;70.20;;;;;;5086569;28;20769;-72